createdAt,value
2023-05-21T00:00:21.001Z,49.71
2023-05-21T00:02:47.588Z,50.00
2023-05-21T00:05:15.480Z,49.81
2023-05-21T00:07:42.124Z,50.04
2023-05-21T00:10:09.041Z,50.15
2023-05-21T00:12:35.673Z,50.17
2023-05-21T00:15:02.474Z,50.17
2023-05-21T00:17:28.992Z,50.09
2023-05-21T00:19:56.868Z,50.25
2023-05-21T00:22:23.894Z,50.14
2023-05-21T00:24:50.723Z,50.42
2023-05-21T00:27:17.253Z,50.36
2023-05-21T00:29:44.489Z,50.65
2023-05-21T00:32:11.320Z,50.52
2023-05-21T00:34:38.233Z,50.53
2023-05-21T00:37:04.932Z,50.49
2023-05-21T00:39:31.413Z,50.53
2023-05-21T00:41:57.959Z,50.63
2023-05-21T00:44:25.394Z,50.57
2023-05-21T00:46:55.717Z,50.69
2023-05-21T00:49:24.531Z,51.03
2023-05-21T00:51:51.936Z,51.04
2023-05-21T00:54:18.929Z,51.15
2023-05-21T00:56:46.181Z,51.11
2023-05-21T02:12:09.244Z,52.54
2023-05-21T02:14:36.300Z,52.71
2023-05-21T02:17:03.265Z,52.94
2023-05-21T02:19:29.976Z,53.30
2023-05-21T02:21:56.922Z,53.48
2023-05-21T02:24:24.542Z,53.74
2023-05-21T02:26:52.323Z,53.74
2023-05-21T02:29:19.410Z,53.59
2023-05-21T02:31:46.227Z,53.88
2023-05-21T02:34:12.863Z,53.82
2023-05-21T02:36:41.659Z,54.02
2023-05-21T02:39:08.240Z,53.74
2023-05-21T02:41:34.865Z,53.90
2023-05-21T02:44:01.466Z,53.95
2023-05-21T02:46:28.066Z,53.96
2023-05-21T02:48:54.573Z,53.79
2023-05-21T02:51:21.120Z,54.04
2023-05-21T02:53:48.259Z,54.17
2023-05-21T02:56:15.114Z,54.06
2023-05-21T02:58:41.879Z,54.25
2023-05-21T03:01:08.528Z,54.15
2023-05-21T03:03:35.188Z,54.22
2023-05-21T03:06:01.809Z,54.35
2023-05-21T03:08:28.408Z,54.42
2023-05-21T03:10:55.465Z,54.42
2023-05-21T03:13:22.152Z,54.48
2023-05-21T03:15:48.928Z,54.71
2023-05-21T03:18:16.486Z,54.81
2023-05-21T03:20:45.952Z,54.89
2023-05-21T03:23:16.277Z,54.90
2023-05-21T03:25:43.495Z,54.92
2023-05-21T03:28:10.104Z,54.94
2023-05-21T03:30:38.266Z,55.12
2023-05-21T03:33:05.255Z,55.13
2023-05-21T03:35:32.083Z,55.21
2023-05-21T03:37:58.791Z,55.46
2023-05-21T03:40:25.325Z,55.44
2023-05-21T03:42:52.041Z,55.70
2023-05-21T03:45:18.659Z,55.52
2023-05-21T03:47:45.302Z,56.01
2023-05-21T03:50:13.116Z,55.97
2023-05-21T03:52:39.707Z,56.08
2023-05-21T03:55:06.781Z,56.01
2023-05-21T03:57:33.350Z,56.12
2023-05-21T04:00:00.012Z,56.05
2023-05-21T04:02:27.535Z,56.26
2023-05-21T04:04:55.901Z,56.23
2023-05-21T04:07:22.745Z,56.32
2023-05-21T04:09:49.321Z,56.31
2023-05-21T04:12:17.919Z,56.43
2023-05-21T04:14:44.519Z,56.59
2023-05-21T04:17:12.715Z,56.49
2023-05-21T04:19:39.609Z,56.56
2023-05-21T04:22:06.418Z,56.73
2023-05-21T04:24:33.051Z,56.60
2023-05-21T04:27:01.506Z,56.76
2023-05-21T04:29:30.050Z,56.57
2023-05-21T04:31:56.757Z,56.69
2023-05-21T04:34:23.478Z,56.69
2023-05-21T04:36:50.038Z,56.77
2023-05-21T04:39:17.155Z,56.74
2023-05-21T04:41:44.286Z,57.06
2023-05-21T04:44:15.141Z,57.15
2023-05-21T04:46:42.719Z,56.78
2023-05-21T04:49:10.277Z,57.21
2023-05-21T04:51:37.889Z,57.06
2023-05-21T04:54:04.526Z,57.14
2023-05-21T04:56:32.041Z,57.32
2023-05-21T04:58:59.181Z,57.27
2023-05-21T05:01:27.139Z,57.17
2023-05-21T05:03:54.082Z,57.26
2023-05-21T05:06:21.443Z,57.05
2023-05-21T05:08:48.357Z,57.34
2023-05-21T05:11:14.977Z,57.34
2023-05-21T05:13:41.983Z,57.29
2023-05-21T05:16:09.437Z,57.37
2023-05-21T05:18:36.648Z,57.20
2023-05-21T05:21:03.405Z,57.22
2023-05-21T05:23:29.984Z,57.09
2023-05-21T05:25:56.667Z,57.23
2023-05-21T05:28:23.280Z,56.94
2023-05-21T05:30:49.986Z,56.78
2023-05-21T05:33:16.664Z,56.98
2023-05-21T05:35:43.339Z,56.70
2023-05-21T05:38:10.653Z,56.63
2023-05-21T05:40:37.185Z,56.64
2023-05-21T05:43:03.812Z,56.53
2023-05-21T05:45:30.372Z,56.53
2023-05-21T05:47:57.010Z,57.00
2023-05-21T05:50:23.508Z,56.29
2023-05-21T05:52:50.163Z,56.46
2023-05-21T05:55:16.962Z,56.35
2023-05-21T05:57:45.110Z,56.25
2023-05-21T06:00:12.547Z,56.25
2023-05-21T06:02:39.358Z,56.48
2023-05-21T06:05:10.082Z,56.69
2023-05-21T06:07:40.735Z,56.71
2023-05-21T06:10:08.296Z,56.72
2023-05-21T06:12:35.661Z,56.51
2023-05-21T06:15:02.341Z,56.50
2023-05-21T06:17:29.004Z,56.70
2023-05-21T06:19:55.543Z,56.44
2023-05-21T06:22:24.864Z,56.65
2023-05-21T06:24:52.173Z,56.50
2023-05-21T06:27:18.778Z,56.19
2023-05-21T06:29:45.270Z,56.50
2023-05-21T06:32:11.889Z,56.45
2023-05-21T06:34:38.480Z,56.57
2023-05-21T06:37:05.375Z,56.46
2023-05-21T06:39:31.921Z,56.50
2023-05-21T06:41:58.516Z,56.39
2023-05-21T06:44:25.053Z,56.41
2023-05-21T06:46:51.608Z,56.38
2023-05-21T06:49:18.232Z,56.37
2023-05-21T06:51:44.860Z,56.36
2023-05-21T06:54:11.508Z,56.44
2023-05-21T06:56:38.119Z,56.18
2023-05-21T06:59:04.572Z,56.68
2023-05-21T07:01:32.295Z,56.32
2023-05-21T07:03:58.958Z,56.45
2023-05-21T07:06:25.680Z,56.54
2023-05-21T07:08:52.224Z,56.40
2023-05-21T07:11:18.960Z,56.42
2023-05-21T07:13:45.508Z,56.54
2023-05-21T07:16:12.002Z,56.41
2023-05-21T07:18:38.588Z,56.31
2023-05-21T07:21:05.050Z,56.41
2023-05-21T07:23:31.531Z,56.15
2023-05-21T07:25:58.044Z,56.41
2023-05-21T07:28:24.557Z,56.28
2023-05-21T07:30:51.085Z,55.95
2023-05-21T07:33:20.545Z,56.46
2023-05-21T07:35:47.071Z,55.98
2023-05-21T07:38:13.696Z,55.76
2023-05-21T07:40:40.414Z,55.74
2023-05-21T07:43:06.984Z,55.53
2023-05-21T07:45:33.571Z,55.67
2023-05-21T07:48:00.208Z,55.81
2023-05-21T07:50:26.930Z,55.60
2023-05-21T07:52:53.587Z,55.65
2023-05-21T07:55:20.277Z,55.43
2023-05-21T07:57:47.128Z,55.18
2023-05-21T08:00:14.347Z,55.61
2023-05-21T08:02:41.064Z,55.55
2023-05-21T08:05:08.220Z,55.61
2023-05-21T08:07:35.019Z,55.66
2023-05-21T09:05:09.438Z,54.03
2023-05-21T09:07:43.222Z,53.99
2023-05-21T09:10:13.058Z,54.00
2023-05-21T09:12:40.014Z,54.05
2023-05-21T09:15:07.533Z,53.88
2023-05-21T09:17:34.101Z,53.70
2023-05-21T09:20:09.655Z,53.61
2023-05-21T09:22:49.978Z,53.46
2023-05-21T09:25:18.892Z,53.23
2023-05-21T09:27:45.610Z,53.19
2023-05-21T09:30:17.235Z,53.17
2023-05-21T09:32:44.841Z,52.93
2023-05-21T09:35:13.461Z,52.84
2023-05-21T09:37:48.249Z,52.99
2023-05-21T09:40:16.903Z,52.62
2023-05-21T09:42:48.253Z,52.68
2023-05-21T09:45:23.131Z,51.96
2023-05-21T09:47:51.594Z,52.19
2023-05-21T09:50:22.139Z,52.16
2023-05-21T09:52:52.683Z,52.27
2023-05-21T09:55:22.415Z,51.99
2023-05-21T09:57:51.045Z,52.07
2023-05-21T10:00:17.710Z,51.78
2023-05-21T10:02:48.850Z,51.71
2023-05-21T10:05:16.751Z,51.64
2023-05-21T10:07:49.369Z,51.30
2023-05-21T10:10:18.204Z,51.27
2023-05-21T10:12:47.160Z,51.38
2023-05-21T10:15:20.895Z,51.08
2023-05-21T10:17:49.658Z,50.86
2023-05-21T10:20:17.452Z,50.90
2023-05-21T10:22:44.841Z,50.59
2023-05-21T10:25:13.477Z,50.75
2023-05-21T10:27:41.520Z,50.49
2023-05-21T10:30:09.184Z,51.18
2023-05-21T10:32:35.802Z,50.50
2023-05-21T10:35:02.776Z,50.32
2023-05-21T10:37:29.778Z,50.41
2023-05-21T10:39:56.942Z,49.81
2023-05-21T10:42:32.389Z,50.01
2023-05-21T10:45:32.674Z,50.24
2023-05-21T10:48:12.479Z,49.39
2023-05-21T10:51:23.937Z,49.83
2023-05-21T10:53:59.384Z,49.85
2023-05-21T10:56:36.526Z,49.54
2023-05-21T10:59:30.150Z,49.51
2023-05-21T11:01:57.568Z,49.25
2023-05-21T11:04:27.153Z,48.77
2023-05-21T11:06:53.705Z,49.18
2023-05-21T11:09:20.449Z,48.50
2023-05-21T11:11:51.957Z,47.78
2023-05-21T11:14:42.944Z,48.42
2023-05-21T11:17:09.567Z,48.14
2023-05-21T11:19:41.486Z,48.38
2023-05-21T11:22:09.972Z,48.45
2023-05-21T11:24:38.921Z,47.79
2023-05-21T11:27:07.023Z,48.06
2023-05-21T11:29:45.032Z,47.78
2023-05-21T11:32:13.518Z,47.97
2023-05-21T11:34:48.047Z,48.01
2023-05-21T11:37:23.190Z,46.86
2023-05-21T11:39:51.326Z,47.03
2023-05-21T11:42:32.392Z,46.06
2023-05-21T11:45:00.376Z,45.98
2023-05-21T11:47:28.418Z,45.70
2023-05-21T11:49:57.134Z,45.00
2023-05-21T11:52:23.963Z,44.99
2023-05-21T11:54:56.725Z,44.54
2023-05-21T11:57:26.752Z,44.54
2023-05-21T11:59:53.271Z,44.81
2023-05-21T12:02:22.174Z,44.70
2023-05-21T12:04:50.110Z,44.87
2023-05-21T12:07:19.166Z,44.88
2023-05-21T12:09:50.324Z,45.08
2023-05-21T12:12:22.419Z,44.78
2023-05-21T12:14:50.551Z,45.12
2023-05-21T12:17:18.656Z,45.81
2023-05-21T12:19:46.386Z,45.35
2023-05-21T12:22:13.504Z,45.74
2023-05-21T12:24:40.090Z,45.24
2023-05-21T12:27:10.730Z,44.94
2023-05-21T12:29:38.876Z,45.19
2023-05-21T12:32:07.353Z,45.27
2023-05-21T12:34:47.022Z,44.43
2023-05-21T12:37:20.459Z,44.34
2023-05-21T12:39:48.618Z,44.91
2023-05-21T12:42:16.228Z,45.19
2023-05-21T12:44:48.960Z,44.55
2023-05-21T12:47:15.811Z,44.37
2023-05-21T12:49:54.763Z,43.64
2023-05-21T12:52:22.255Z,44.25
2023-05-21T12:54:53.798Z,43.97
2023-05-21T12:57:25.046Z,44.91
2023-05-21T12:59:55.278Z,44.82
2023-05-21T13:02:28.738Z,43.82
2023-05-21T13:05:03.938Z,43.48
2023-05-21T13:07:32.528Z,42.71
2023-05-21T13:10:01.055Z,42.77
2023-05-21T13:12:30.884Z,42.39
2023-05-21T13:14:59.326Z,43.00
2023-05-21T13:17:27.409Z,42.83
2023-05-21T13:20:09.354Z,41.96
2023-05-21T13:22:39.180Z,41.95
2023-05-21T13:25:07.274Z,41.89
2023-05-21T13:27:33.829Z,41.99
2023-05-21T13:30:01.080Z,42.35
2023-05-21T13:32:27.708Z,42.98
2023-05-21T13:34:54.299Z,42.34
2023-05-21T13:37:20.948Z,42.09
2023-05-21T13:39:47.658Z,42.01
2023-05-21T13:42:14.208Z,41.91
2023-05-21T13:44:40.787Z,41.53
2023-05-21T13:47:10.244Z,40.84
2023-05-21T13:49:37.380Z,40.19
2023-05-21T13:52:05.278Z,39.99
2023-05-21T13:54:31.725Z,39.83
2023-05-21T13:56:58.449Z,39.48
2023-05-21T13:59:25.076Z,39.54
2023-05-21T14:01:52.393Z,39.59
2023-05-21T14:04:19.831Z,39.38
2023-05-21T14:06:47.254Z,40.33
2023-05-21T14:09:14.121Z,40.57
2023-05-21T14:14:24.546Z,40.91
2023-05-21T14:16:51.823Z,40.81
2023-05-21T14:19:18.556Z,41.05
2023-05-21T14:21:45.347Z,41.05
2023-05-21T14:24:11.921Z,42.00
2023-05-21T14:26:41.329Z,42.21
2023-05-21T14:29:08.373Z,42.96
2023-05-21T14:31:35.269Z,42.86
2023-05-21T14:34:03.028Z,42.55
2023-05-21T14:36:30.064Z,42.71
2023-05-21T14:38:56.796Z,42.50
2023-05-21T14:41:27.319Z,41.78
2023-05-21T14:43:54.849Z,41.09
2023-05-21T14:46:22.181Z,41.53
2023-05-21T14:48:48.889Z,41.19
2023-05-21T14:51:15.735Z,40.80
2023-05-21T14:53:42.334Z,41.05
2023-05-21T14:56:09.125Z,40.55
2023-05-21T14:58:35.874Z,40.30
2023-05-21T15:01:04.333Z,39.16
2023-05-21T15:03:31.220Z,38.37
2023-05-21T15:05:58.676Z,37.70
2023-05-21T15:08:25.448Z,37.59
2023-05-21T15:10:52.312Z,37.28
2023-05-21T15:13:18.951Z,37.26
2023-05-21T15:15:45.532Z,36.68
2023-05-21T15:18:12.356Z,36.35
2023-05-21T15:20:38.955Z,36.38
2023-05-21T15:23:16.147Z,36.60
2023-05-21T15:25:44.363Z,36.69
2023-05-21T15:28:12.306Z,36.90
2023-05-21T15:30:39.256Z,37.13
2023-05-21T15:33:05.824Z,37.39
2023-05-21T15:35:32.836Z,37.56
2023-05-21T15:37:59.554Z,37.32
2023-05-21T15:40:27.217Z,37.72
2023-05-21T15:42:54.244Z,38.51
2023-05-21T15:45:21.119Z,38.20
2023-05-21T15:47:47.969Z,38.29
2023-05-21T15:50:14.896Z,38.71
2023-05-21T15:52:41.954Z,38.76
2023-05-21T15:55:09.415Z,38.87
2023-05-21T15:57:36.033Z,38.76
2023-05-21T16:00:03.013Z,39.13
2023-05-21T16:02:29.680Z,39.37
2023-05-21T16:04:56.318Z,39.54
2023-05-21T16:07:23.977Z,39.48
2023-05-21T16:09:50.551Z,39.89
2023-05-21T16:12:17.792Z,40.13
2023-05-21T16:14:44.388Z,40.22
2023-05-21T16:17:11.263Z,40.37
2023-05-21T16:19:38.058Z,40.20
2023-05-21T16:22:04.949Z,40.64
2023-05-21T16:24:31.544Z,40.55
2023-05-21T16:26:58.517Z,40.64
2023-05-21T16:29:25.139Z,40.94
2023-05-21T16:31:51.807Z,40.82
2023-05-21T16:34:18.471Z,40.87
2023-05-21T16:36:44.985Z,40.96
2023-05-21T16:39:11.540Z,40.98
2023-05-21T16:41:38.194Z,41.43
2023-05-21T16:44:04.722Z,41.46
2023-05-21T16:46:31.386Z,41.58
2023-05-21T16:48:58.079Z,41.52
2023-05-21T16:51:24.646Z,41.58
2023-05-21T16:53:51.318Z,41.57
2023-05-21T16:56:18.027Z,41.96
2023-05-21T16:58:44.761Z,42.09
2023-05-21T17:01:11.507Z,42.54
2023-05-21T17:03:39.723Z,42.81
2023-05-21T17:06:07.693Z,42.75
2023-05-21T17:08:34.273Z,42.75
2023-05-21T17:11:00.990Z,43.03
2023-05-21T17:13:27.659Z,43.11
2023-05-21T17:15:54.712Z,43.14
2023-05-21T17:18:21.404Z,43.17
2023-05-21T17:20:48.002Z,43.01
2023-05-21T17:23:14.921Z,43.71
2023-05-21T17:25:41.935Z,43.17
2023-05-21T17:28:08.755Z,43.60
2023-05-21T17:30:35.387Z,43.50
2023-05-21T17:33:03.734Z,43.48
2023-05-21T17:35:30.714Z,43.66
2023-05-21T17:37:57.383Z,43.61
2023-05-21T17:40:24.688Z,44.02
2023-05-21T17:42:54.712Z,44.01
2023-05-21T17:45:21.398Z,43.83
2023-05-21T17:47:48.116Z,44.00
2023-05-21T17:50:15.587Z,44.15
2023-05-21T17:52:42.187Z,44.15
2023-05-21T17:55:09.102Z,44.17
2023-05-21T17:57:36.108Z,44.40
2023-05-21T18:00:04.979Z,44.17
2023-05-21T18:02:31.871Z,44.25
2023-05-21T18:04:58.611Z,44.24
2023-05-21T18:07:25.741Z,44.33
2023-05-21T18:09:52.283Z,44.38
2023-05-21T18:12:18.947Z,44.30
2023-05-21T18:14:45.875Z,44.40
2023-05-21T18:17:13.018Z,44.39
2023-05-21T18:19:39.710Z,44.16
2023-05-21T18:22:06.710Z,44.24
2023-05-21T18:24:33.346Z,44.29
2023-05-21T18:26:59.996Z,44.47
2023-05-21T18:29:26.732Z,44.42
2023-05-21T18:31:53.838Z,44.39
2023-05-21T18:34:20.503Z,44.23
2023-05-21T18:36:48.178Z,44.61
2023-05-21T18:39:15.029Z,44.58
2023-05-21T18:41:41.697Z,44.52
2023-05-21T18:44:08.422Z,44.47
2023-05-21T18:46:35.222Z,44.78
2023-05-21T18:49:02.135Z,44.54
2023-05-21T18:51:28.773Z,44.93
2023-05-21T18:53:55.487Z,44.86
2023-05-21T18:56:22.264Z,44.97
2023-05-21T18:58:48.943Z,45.17
2023-05-21T19:01:16.266Z,45.24
2023-05-21T19:03:42.969Z,45.27
2023-05-21T19:06:09.636Z,45.48
2023-05-21T19:08:36.281Z,45.47
2023-05-21T19:11:03.350Z,45.37
2023-05-21T19:13:30.115Z,45.45
2023-05-21T19:15:58.411Z,45.70
2023-05-21T19:18:30.354Z,46.02
2023-05-21T19:20:57.582Z,45.80
2023-05-21T19:23:24.957Z,46.01
2023-05-21T19:25:51.549Z,46.00
2023-05-21T19:28:18.949Z,46.42
2023-05-21T19:30:46.318Z,46.15
2023-05-21T19:33:13.151Z,46.24
2023-05-21T19:35:41.533Z,46.50
2023-05-21T19:38:10.585Z,46.75
2023-05-21T19:40:37.529Z,46.49
2023-05-21T19:43:04.535Z,46.82
2023-05-21T19:45:31.203Z,47.04
2023-05-21T19:47:59.087Z,46.99
2023-05-21T19:50:28.519Z,47.11
2023-05-21T19:52:57.212Z,46.70
2023-05-21T19:55:24.565Z,46.84
2023-05-21T19:57:51.331Z,46.96
2023-05-21T20:00:19.082Z,47.07
2023-05-21T20:02:46.978Z,46.94
2023-05-21T20:05:13.825Z,47.12
2023-05-21T20:07:41.300Z,47.37
2023-05-21T20:10:08.831Z,47.45
2023-05-21T20:15:10.088Z,47.33
2023-05-21T20:17:39.355Z,47.75
2023-05-21T20:20:10.227Z,48.03
2023-05-21T20:22:36.981Z,48.07
2023-05-21T20:25:04.284Z,48.29
2023-05-21T20:27:30.895Z,47.99
2023-05-21T20:29:57.613Z,48.47
2023-05-21T20:32:24.116Z,48.29
2023-05-21T20:35:02.238Z,48.60
2023-05-21T20:37:32.407Z,48.53
2023-05-21T20:39:59.720Z,48.70
2023-05-21T20:42:34.375Z,48.74
2023-05-21T20:45:01.837Z,49.15
2023-05-21T20:47:32.085Z,49.06
2023-05-21T20:49:59.979Z,49.38
2023-05-21T20:52:26.790Z,49.17
2023-05-21T20:54:54.745Z,49.36
2023-05-21T20:57:26.009Z,49.35
2023-05-21T20:59:53.396Z,49.70
2023-05-21T21:02:20.660Z,50.00
2023-05-21T21:04:49.136Z,49.79
2023-05-21T21:07:18.080Z,49.89
2023-05-21T21:09:48.872Z,50.24
2023-05-21T21:12:26.007Z,49.44
2023-05-21T21:14:53.067Z,49.66
2023-05-21T21:17:19.794Z,49.56
2023-05-21T21:19:46.569Z,49.14
2023-05-21T21:22:14.346Z,49.16
2023-05-21T21:24:41.053Z,49.31
2023-05-21T21:27:07.748Z,49.17
2023-05-21T21:29:34.327Z,49.31
2023-05-21T21:32:01.320Z,49.66
2023-05-21T21:34:27.856Z,49.74
2023-05-21T21:36:54.449Z,49.68
2023-05-21T21:39:21.208Z,49.66
2023-05-21T21:41:47.798Z,49.99
2023-05-21T21:44:14.476Z,49.94
2023-05-21T21:46:41.082Z,49.76
2023-05-21T21:49:07.702Z,49.94
2023-05-21T21:51:34.938Z,49.89
2023-05-21T21:54:01.612Z,50.49
2023-05-21T21:56:29.189Z,49.97
2023-05-21T21:58:55.860Z,50.44
2023-05-21T22:01:22.559Z,50.28
2023-05-21T22:03:49.314Z,50.09
2023-05-21T22:06:16.091Z,50.72
2023-05-21T22:08:42.698Z,50.50
2023-05-21T22:11:09.405Z,51.00
2023-05-21T22:13:35.973Z,50.65
2023-05-21T22:16:02.755Z,50.95
2023-05-21T22:18:39.659Z,51.05
2023-05-21T22:21:09.561Z,50.89
2023-05-21T22:23:37.239Z,51.04
2023-05-21T22:26:04.094Z,50.90
2023-05-21T22:28:30.676Z,51.31
2023-05-21T22:30:57.355Z,51.48
2023-05-21T22:33:24.461Z,51.52
2023-05-21T22:35:51.206Z,51.32
2023-05-21T22:38:18.061Z,51.52
2023-05-21T22:40:44.679Z,51.63
2023-05-21T22:43:11.560Z,51.99
2023-05-21T22:45:38.468Z,51.76
2023-05-21T22:48:08.576Z,51.72
2023-05-21T22:50:36.171Z,51.41
2023-05-21T22:53:03.035Z,51.51
2023-05-21T22:55:29.806Z,51.83
2023-05-21T22:57:56.535Z,52.03
2023-05-21T23:00:23.535Z,52.32
2023-05-21T23:02:53.101Z,52.43
2023-05-21T23:05:20.894Z,52.34
2023-05-21T23:07:47.545Z,52.44
2023-05-21T23:10:14.213Z,52.59
2023-05-21T23:12:41.309Z,52.41
2023-05-21T23:15:10.025Z,52.61
2023-05-21T23:17:37.268Z,52.88
2023-05-21T23:20:04.778Z,53.12
2023-05-21T23:22:31.732Z,53.20
2023-05-21T23:24:58.550Z,53.05
2023-05-21T23:27:25.186Z,52.99
2023-05-21T23:29:51.792Z,53.07
2023-05-21T23:32:18.550Z,53.50
2023-05-21T23:34:45.302Z,53.34
2023-05-21T23:37:12.327Z,53.42
2023-05-21T23:39:38.979Z,53.49
2023-05-21T23:42:06.199Z,53.62
2023-05-21T23:44:33.220Z,53.55
2023-05-21T23:46:59.799Z,53.82
2023-05-21T23:49:26.478Z,53.82
2023-05-21T23:51:53.295Z,53.98
2023-05-21T23:54:19.943Z,54.07
2023-05-21T23:56:46.740Z,54.03
2023-05-21T23:59:14.190Z,54.41
